Historique des Minis et Maxis de la station Météo
| Date | Température | Point de rosée | Humidité | Pression | ||||
|---|---|---|---|---|---|---|---|---|
| Mini | Maxi | Mini | Maxi | Mini | Maxi | Mini | Maxi | |
| 04/12/2023 23:59 | -3.12 C° | 6.44 C° | -0,02 C° | 6,44 C° | 100 % | 100 % | 998.52 Hpa | 1013.4 Hpa |
| 03/12/2023 23:59 | -4.26 C° | 7.22 C° | -0,01 C° | 5,85 C° | 87 % | 100 % | 1013.4 Hpa | 1019.75 Hpa |
| 02/12/2023 23:59 | -3.66 C° | 4.8 C° | -0 C° | 3,92 C° | 91 % | 100 % | 1001.11 Hpa | 1017.12 Hpa |
| 01/12/2023 23:59 | -0.2 C° | 2.89 C° | -0,01 C° | 2,89 C° | 100 % | 100 % | 997.3 Hpa | 1001.14 Hpa |
| 30/11/2023 23:59 | -0.92 C° | 11.92 C° | -0,01 C° | 9,92 C° | 74 % | 100 % | 995.06 Hpa | 1000.64 Hpa |
| 29/11/2023 23:59 | -0.87 C° | 2.98 C° | -0 C° | 2,98 C° | 100 % | 100 % | 1000.25 Hpa | 1005.66 Hpa |
| 28/11/2023 23:59 | -0.7 C° | 188.86 C° | -0,01 C° | 6,90 C° | 100 % | 100 % | 639.81 Hpa | 1005.98 Hpa |
| 27/11/2023 23:59 | 1.09 C° | 4.72 C° | 1,09 C° | 4,72 C° | 100 % | 100 % | 991.57 Hpa | 1077.81 Hpa |
| 26/11/2023 23:59 | 3.04 C° | 4.94 C° | 3 C° | 4,94 C° | 100 % | 100 % | 1011.18 Hpa | 1015.27 Hpa |
| 25/11/2023 23:59 | 1.31 C° | 5.38 C° | 1,31 C° | 5,38 C° | 100 % | 100 % | 792.36 Hpa | 1012.74 Hpa |
| 24/11/2023 23:59 | 3.07 C° | 11.87 C° | 10,00 C° | 9,99 C° | 99 % | 100 % | 793.07 Hpa | 803.46 Hpa |
| 23/11/2023 23:59 | -0.15 C° | 8.48 C° | -0,02 C° | 8,48 C° | 100 % | 100 % | 789.34 Hpa | 1000.02 Hpa |
| 22/11/2023 23:59 | 0.82 C° | 15.05 C° | 0,82 C° | 9,36 C° | 60 % | 100 % | 790.48 Hpa | 807.3 Hpa |
| 21/11/2023 23:59 | 8.25 C° | 16.12 C° | 10,01 C° | 9,99 C° | 100 % | 100 % | 799.11 Hpa | 808.47 Hpa |
| 20/11/2023 23:59 | 8.5 C° | 10.0 C° | 10,00 C° | 9,96 C° | 100 % | 100 % | 799.39 Hpa | 801.22 Hpa |
| 19/11/2023 23:59 | 8.5 C° | 8.5 C° | 8 C° | 8 C° | 100 % | 100 % | 799.39 Hpa | 799.39 Hpa |
| 18/11/2023 23:59 | 4.98 C° | 9.01 C° | 4,98 C° | 9,01 C° | 100 % | 100 % | 795.25 Hpa | 800.02 Hpa |
| 17/11/2023 23:59 | 5.35 C° | 10.1 C° | 10,01 C° | 9,99 C° | 97 % | 100 % | 795.69 Hpa | 801.3 Hpa |
| 16/11/2023 23:59 | 6.56 C° | 9.33 C° | 6,56 C° | 9,33 C° | 100 % | 100 % | 797.13 Hpa | 800.41 Hpa |
| 15/11/2023 23:59 | 8.47 C° | 15.97 C° | 10,00 C° | 9,99 C° | 100 % | 100 % | 799.4 Hpa | 808.28 Hpa |